TimeCST,TemperatureF,Dew PointF,Humidity,Sea Level PressureIn,VisibilityMPH,Wind Direction,Wind SpeedMPH,Gust SpeedMPH,PrecipitationIn,Events,Conditions,WindDirDegrees,DateUTC
12:53 AM,52.0,45.0,77,30.09,10.0,Calm,Calm,-,N/A,,Overcast,0,2013-02-19 06:53:00
1:53 AM,60.1,51.1,72,30.07,10.0,SSE,9.2,-,N/A,,Overcast,160,2013-02-19 07:53:00
2:08 AM,60.8,51.8,72,30.07,10.0,South,5.8,-,N/A,,Overcast,170,2013-02-19 08:08:00
2:53 AM,62.1,52.0,70,30.05,10.0,South,10.4,18.4,N/A,,Overcast,180,2013-02-19 08:53:00
3:53 AM,63.0,53.1,70,30.03,10.0,South,15.0,24.2,N/A,,Overcast,180,2013-02-19 09:53:00
4:53 AM,64.0,54.0,70,30.03,10.0,South,16.1,21.9,N/A,,Overcast,190,2013-02-19 10:53:00
5:40 AM,62.6,57.2,82,30.04,10.0,South,11.5,-,0.00,,Overcast,180,2013-02-19 11:40:00
5:49 AM,62.6,57.2,82,30.04,10.0,South,8.1,-,0.00,Rain,Light Rain,180,2013-02-19 11:49:00
5:53 AM,62.1,57.0,84,30.04,7.0,South,9.2,-,0.00,Rain,Rain,190,2013-02-19 11:53:00
6:38 AM,62.6,57.2,82,30.05,6.0,South,10.4,-,0.01,Rain,Light Rain,180,2013-02-19 12:38:00
6:49 AM,62.6,59.0,88,30.05,5.0,SSW,11.5,-,0.02,Rain,Heavy Rain,200,2013-02-19 12:49:00
6:53 AM,62.1,59.0,90,30.04,4.0,South,10.4,-,0.02,Rain,Rain,190,2013-02-19 12:53:00
7:16 AM,62.6,60.8,94,30.06,4.0,South,10.4,19.6,0.01,Rain,Rain,190,2013-02-19 13:16:00
7:36 AM,62.6,60.8,94,30.07,7.0,SW,9.2,-,0.01,Rain,Light Rain,230,2013-02-19 13:36:00
7:45 AM,64.4,60.8,88,30.07,10.0,WSW,10.4,-,0.01,Rain,Light Rain,250,2013-02-19 13:45:00
7:53 AM,64.0,60.1,87,30.07,10.0,WSW,10.4,-,0.01,Rain,Light Rain,240,2013-02-19 13:53:00
8:53 AM,63.0,59.0,87,30.08,10.0,West,8.1,-,0.00,,Overcast,260,2013-02-19 14:53:00
9:05 AM,64.4,60.8,88,30.08,10.0,West,4.6,-,N/A,,Overcast,260,2013-02-19 15:05:00
9:16 AM,64.4,60.8,88,30.09,10.0,West,4.6,-,N/A,,Overcast,260,2013-02-19 15:16:00
9:29 AM,62.6,59.0,88,30.10,10.0,WNW,6.9,-,N/A,,Overcast,290,2013-02-19 15:29:00
9:35 AM,62.6,59.0,88,30.10,10.0,NW,8.1,-,N/A,,Overcast,310,2013-02-19 15:35:00
9:53 AM,64.0,57.0,78,30.10,10.0,NNW,9.2,-,N/A,,Overcast,330,2013-02-19 15:53:00
10:20 AM,66.2,57.2,73,30.11,10.0,NNW,6.9,-,N/A,,Overcast,330,2013-02-19 16:20:00
10:36 AM,66.2,55.4,68,30.12,10.0,NW,10.4,-,N/A,,Overcast,320,2013-02-19 16:36:00
10:53 AM,64.0,54.0,70,30.12,10.0,NW,13.8,20.7,N/A,,Overcast,320,2013-02-19 16:53:00
11:29 AM,64.4,53.6,68,30.12,10.0,NW,12.7,18.4,N/A,,Overcast,320,2013-02-19 17:29:00
12:40 PM,64.4,51.8,64,30.12,10.0,NW,12.7,-,N/A,,Overcast,320,2013-02-19 18:40:00
12:53 PM,63.0,51.1,65,30.12,10.0,NNW,10.4,-,N/A,,Overcast,340,2013-02-19 18:53:00
1:35 PM,64.4,48.2,56,30.11,10.0,North,9.2,19.6,N/A,,Scattered Clouds,350,2013-02-19 19:35:00
1:53 PM,66.0,46.9,50,30.10,10.0,NNW,13.8,18.4,N/A,,Clear,330,2013-02-19 19:53:00
2:53 PM,68.0,43.0,40,30.10,10.0,North,9.2,-,N/A,,Clear,350,2013-02-19 20:53:00
3:53 PM,68.0,37.9,33,30.10,10.0,NNW,12.7,16.1,N/A,,Clear,330,2013-02-19 21:53:00
4:53 PM,64.9,34.0,32,30.12,10.0,NNW,6.9,-,N/A,,Clear,340,2013-02-19 22:53:00
6:53 PM,55.9,28.9,36,30.16,10.0,North,3.5,-,N/A,,Clear,360,2013-02-20 00:53:00
7:53 PM,54.0,28.9,38,30.18,10.0,North,5.8,-,N/A,,Clear,360,2013-02-20 01:53:00
8:53 PM,51.1,24.1,35,30.19,10.0,NNW,5.8,-,N/A,,Clear,340,2013-02-20 02:53:00
9:53 PM,42.1,30.9,65,30.20,10.0,Calm,Calm,-,N/A,,Clear,0,2013-02-20 03:53:00
10:53 PM,39.9,30.0,68,30.20,10.0,Calm,Calm,-,N/A,,Clear,0,2013-02-20 04:53:00
11:53 PM,35.1,30.0,82,30.20,10.0,Calm,Calm,-,N/A,,Clear,0,2013-02-20 05:53:00